Okesa, Oklahoma
Current Conditions -  °F | °C
As of 4:53 AM on Friday 19 Dec 2014 (Local Time) from KBVO Reporting Station
Overcast Overcast  
Wind Chill: 30°   Ceiling: 700
Heat Index: 35°   Visibility: 9mi
Dew Point: 33°   Wind: 6mph
Humidity: 92%   Direction: 10°N
Pressure: 30.23"   Gusts: NA
Location:  36.7524°N, 96.0733°W
Report Text: KBVO 191053Z AUTO 01005KT 9SM OVC007 02/01 A3023 RMK AO2 SLP237 T00170006
Loading
Personal Weather Stations






























Interactive Weather Map New forecast layout! Learn more

10-Day Weather Forecast

Advertisements
Track Severe Weather on mobile